sensor_id;sensor_type;location;lat;lon;timestamp;P1;durP1;ratioP1;P2;durP2;ratioP2
12867;SDS011;33517;49.866;8.320;2023-01-01T00:00:36;8.10;;;5.72;;
12867;SDS011;33517;49.866;8.320;2023-01-01T00:03:28;7.22;;;5.55;;
12867;SDS011;33517;49.866;8.320;2023-01-01T00:06:22;7.70;;;4.50;;
12867;SDS011;33517;49.866;8.320;2023-01-01T00:09:14;3.58;;;2.78;;
12867;SDS011;33517;49.866;8.320;2023-01-01T00:12:24;2.25;;;1.85;;
12867;SDS011;33517;49.866;8.320;2023-01-01T00:15:15;0.98;;;0.90;;
12867;SDS011;33517;49.866;8.320;2023-01-01T00:18:08;2.00;;;1.83;;
12867;SDS011;33517;49.866;8.320;2023-01-01T00:21:00;7.60;;;3.92;;
12867;SDS011;33517;49.866;8.320;2023-01-01T00:23:54;5.22;;;3.42;;
12867;SDS011;33517;49.866;8.320;2023-01-01T00:26:46;3.65;;;3.25;;
12867;SDS011;33517;49.866;8.320;2023-01-01T00:29:39;2.50;;;2.30;;
12867;SDS011;33517;49.866;8.320;2023-01-01T00:32:31;4.93;;;2.97;;
12867;SDS011;33517;49.866;8.320;2023-01-01T00:35:23;2.88;;;2.50;;
12867;SDS011;33517;49.866;8.320;2023-01-01T00:38:15;7.70;;;5.28;;
12867;SDS011;33517;49.866;8.320;2023-01-01T00:41:08;4.45;;;2.85;;
12867;SDS011;33517;49.866;8.320;2023-01-01T00:44:00;1.95;;;1.75;;
12867;SDS011;33517;49.866;8.320;2023-01-01T00:46:52;4.43;;;3.38;;
12867;SDS011;33517;49.866;8.320;2023-01-01T00:49:44;2.58;;;2.33;;
12867;SDS011;33517;49.866;8.320;2023-01-01T00:52:36;6.25;;;3.05;;
12867;SDS011;33517;49.866;8.320;2023-01-01T00:55:28;5.50;;;2.42;;
12867;SDS011;33517;49.866;8.320;2023-01-01T00:58:22;2.10;;;1.88;;
12867;SDS011;33517;49.866;8.320;2023-01-01T01:01:15;5.13;;;2.67;;
12867;SDS011;33517;49.866;8.320;2023-01-01T01:04:08;2.35;;;1.92;;
12867;SDS011;33517;49.866;8.320;2023-01-01T01:06:59;5.05;;;2.17;;
12867;SDS011;33517;49.866;8.320;2023-01-01T01:09:51;3.75;;;1.88;;
12867;SDS011;33517;49.866;8.320;2023-01-01T01:12:43;4.70;;;2.03;;
12867;SDS011;33517;49.866;8.320;2023-01-01T01:15:36;1.55;;;1.40;;
12867;SDS011;33517;49.866;8.320;2023-01-01T01:18:29;3.17;;;2.35;;
12867;SDS011;33517;49.866;8.320;2023-01-01T01:21:21;1.73;;;1.33;;
12867;SDS011;33517;49.866;8.320;2023-01-01T01:24:13;3.35;;;2.38;;
12867;SDS011;33517;49.866;8.320;2023-01-01T01:27:05;2.03;;;1.83;;
12867;SDS011;33517;49.866;8.320;2023-01-01T01:29:57;5.03;;;2.58;;
12867;SDS011;33517;49.866;8.320;2023-01-01T01:32:50;3.35;;;1.98;;
12867;SDS011;33517;49.866;8.320;2023-01-01T01:35:48;5.82;;;3.63;;
12867;SDS011;33517;49.866;8.320;2023-01-01T01:38:41;3.67;;;1.42;;
12867;SDS011;33517;49.866;8.320;2023-01-01T01:41:33;5.47;;;2.90;;
12867;SDS011;33517;49.866;8.320;2023-01-01T01:47:46;5.88;;;4.05;;
12867;SDS011;33517;49.866;8.320;2023-01-01T01:50:42;6.50;;;3.78;;
12867;SDS011;33517;49.866;8.320;2023-01-01T01:53:39;4.60;;;3.92;;
12867;SDS011;33517;49.866;8.320;2023-01-01T01:56:36;5.30;;;4.45;;
12867;SDS011;33517;49.866;8.320;2023-01-01T01:59:34;5.78;;;3.63;;
12867;SDS011;33517;49.866;8.320;2023-01-01T02:02:29;4.78;;;3.05;;
12867;SDS011;33517;49.866;8.320;2023-01-01T02:05:26;8.70;;;3.20;;
12867;SDS011;33517;49.866;8.320;2023-01-01T02:08:20;9.57;;;4.15;;
12867;SDS011;33517;49.866;8.320;2023-01-01T02:11:14;7.57;;;4.80;;
12867;SDS011;33517;49.866;8.320;2023-01-01T02:14:05;11.38;;;6.38;;
12867;SDS011;33517;49.866;8.320;2023-01-01T02:16:59;10.40;;;4.78;;
12867;SDS011;33517;49.866;8.320;2023-01-01T02:20:02;8.45;;;4.20;;
12867;SDS011;33517;49.866;8.320;2023-01-01T02:23:12;7.80;;;4.28;;
12867;SDS011;33517;49.866;8.320;2023-01-01T02:26:19;3.53;;;3.13;;
12867;SDS011;33517;49.866;8.320;2023-01-01T02:29:30;2.50;;;2.33;;
12867;SDS011;33517;49.866;8.320;2023-01-01T02:32:28;2.60;;;2.30;;
12867;SDS011;33517;49.866;8.320;2023-01-01T02:35:27;3.45;;;2.17;;
12867;SDS011;33517;49.866;8.320;2023-01-01T02:38:28;2.67;;;1.63;;
12867;SDS011;33517;49.866;8.320;2023-01-01T02:41:22;2.40;;;2.20;;
12867;SDS011;33517;49.866;8.320;2023-01-01T02:44:17;2.75;;;1.70;;
12867;SDS011;33517;49.866;8.320;2023-01-01T02:47:14;3.35;;;2.63;;
12867;SDS011;33517;49.866;8.320;2023-01-01T02:50:10;3.67;;;2.90;;
12867;SDS011;33517;49.866;8.320;2023-01-01T02:53:12;3.90;;;2.17;;
12867;SDS011;33517;49.866;8.320;2023-01-01T02:56:14;4.10;;;2.88;;
12867;SDS011;33517;49.866;8.320;2023-01-01T02:59:16;4.00;;;2.60;;
12867;SDS011;33517;49.866;8.320;2023-01-01T03:02:34;2.97;;;2.10;;
12867;SDS011;33517;49.866;8.320;2023-01-01T03:05:38;2.95;;;2.45;;
12867;SDS011;33517;49.866;8.320;2023-01-01T03:08:48;1.15;;;1.05;;
12867;SDS011;33517;49.866;8.320;2023-01-01T03:11:47;4.38;;;2.50;;
12867;SDS011;33517;49.866;8.320;2023-01-01T03:14:46;4.43;;;3.25;;
12867;SDS011;33517;49.866;8.320;2023-01-01T03:17:48;2.50;;;2.28;;
12867;SDS011;33517;49.866;8.320;2023-01-01T03:20:46;1.67;;;1.30;;
12867;SDS011;33517;49.866;8.320;2023-01-01T03:23:44;1.83;;;1.58;;
12867;SDS011;33517;49.866;8.320;2023-01-01T03:26:44;1.50;;;1.40;;
12867;SDS011;33517;49.866;8.320;2023-01-01T03:29:41;1.35;;;1.25;;
12867;SDS011;33517;49.866;8.320;2023-01-01T03:32:36;2.05;;;1.38;;
12867;SDS011;33517;49.866;8.320;2023-01-01T03:35:50;1.08;;;1.00;;
12867;SDS011;33517;49.866;8.320;2023-01-01T03:38:46;6.00;;;2.78;;
12867;SDS011;33517;49.866;8.320;2023-01-01T03:41:43;3.38;;;1.40;;
12867;SDS011;33517;49.866;8.320;2023-01-01T03:44:42;2.60;;;2.00;;
12867;SDS011;33517;49.866;8.320;2023-01-01T03:47:36;1.27;;;1.17;;
12867;SDS011;33517;49.866;8.320;2023-01-01T03:50:29;0.73;;;0.73;;
12867;SDS011;33517;49.866;8.320;2023-01-01T03:53:35;4.60;;;1.77;;
12867;SDS011;33517;49.866;8.320;2023-01-01T03:56:32;0.98;;;0.98;;
12867;SDS011;33517;49.866;8.320;2023-01-01T03:59:28;2.25;;;1.23;;
12867;SDS011;33517;49.866;8.320;2023-01-01T04:02:29;1.25;;;1.20;;
12867;SDS011;33517;49.866;8.320;2023-01-01T04:05:26;8.23;;;1.95;;
12867;SDS011;33517;49.866;8.320;2023-01-01T04:08:20;3.00;;;1.02;;
12867;SDS011;33517;49.866;8.320;2023-01-01T04:11:14;1.10;;;1.10;;
12867;SDS011;33517;49.866;8.320;2023-01-01T04:14:30;2.25;;;1.85;;
12867;SDS011;33517;49.866;8.320;2023-01-01T04:17:23;2.22;;;1.77;;
12867;SDS011;33517;49.866;8.320;2023-01-01T04:20:15;1.95;;;1.85;;
12867;SDS011;33517;49.866;8.320;2023-01-01T04:23:07;2.53;;;1.83;;
12867;SDS011;33517;49.866;8.320;2023-01-01T04:25:59;2.50;;;2.30;;
12867;SDS011;33517;49.866;8.320;2023-01-01T04:28:52;0.85;;;0.73;;
12867;SDS011;33517;49.866;8.320;2023-01-01T04:31:44;2.17;;;1.58;;
12867;SDS011;33517;49.866;8.320;2023-01-01T04:34:36;1.40;;;1.30;;
12867;SDS011;33517;49.866;8.320;2023-01-01T04:37:28;0.90;;;0.70;;
12867;SDS011;33517;49.866;8.320;2023-01-01T04:40:20;6.10;;;1.10;;
12867;SDS011;33517;49.866;8.320;2023-01-01T04:43:11;2.15;;;1.17;;
12867;SDS011;33517;49.866;8.320;2023-01-01T04:46:05;2.03;;;1.63;;
12867;SDS011;33517;49.866;8.320;2023-01-01T04:48:56;3.50;;;3.17;;
12867;SDS011;33517;49.866;8.320;2023-01-01T04:51:48;0.98;;;0.85;;
12867;SDS011;33517;49.866;8.320;2023-01-01T04:54:40;2.67;;;1.17;;
12867;SDS011;33517;49.866;8.320;2023-01-01T04:57:32;1.95;;;1.20;;
12867;SDS011;33517;49.866;8.320;2023-01-01T05:00:24;1.48;;;1.02;;
12867;SDS011;33517;49.866;8.320;2023-01-01T05:03:17;0.85;;;0.82;;
12867;SDS011;33517;49.866;8.320;2023-01-01T05:06:10;4.07;;;2.03;;
12867;SDS011;33517;49.866;8.320;2023-01-01T05:09:03;2.58;;;1.65;;
12867;SDS011;33517;49.866;8.320;2023-01-01T05:11:54;3.58;;;1.85;;
12867;SDS011;33517;49.866;8.320;2023-01-01T05:14:46;2.08;;;1.67;;
12867;SDS011;33517;49.866;8.320;2023-01-01T05:17:38;2.83;;;1.35;;
12867;SDS011;33517;49.866;8.320;2023-01-01T05:20:31;4.88;;;2.67;;
12867;SDS011;33517;49.866;8.320;2023-01-01T05:23:23;1.10;;;1.10;;
12867;SDS011;33517;49.866;8.320;2023-01-01T05:26:15;1.67;;;1.42;;
12867;SDS011;33517;49.866;8.320;2023-01-01T05:29:09;2.58;;;0.98;;
12867;SDS011;33517;49.866;8.320;2023-01-01T05:32:01;3.58;;;1.92;;
12867;SDS011;33517;49.866;8.320;2023-01-01T05:34:53;9.10;;;4.50;;
12867;SDS011;33517;49.866;8.320;2023-01-01T05:37:47;1.05;;;0.95;;
12867;SDS011;33517;49.866;8.320;2023-01-01T05:40:41;0.22;;;0.22;;
12867;SDS011;33517;49.866;8.320;2023-01-01T05:43:33;3.75;;;1.00;;
12867;SDS011;33517;49.866;8.320;2023-01-01T05:46:24;1.48;;;1.15;;
12867;SDS011;33517;49.866;8.320;2023-01-01T05:49:16;0.55;;;0.55;;
12867;SDS011;33517;49.866;8.320;2023-01-01T05:52:08;0.47;;;0.40;;
12867;SDS011;33517;49.866;8.320;2023-01-01T05:55:01;2.30;;;0.68;;
12867;SDS011;33517;49.866;8.320;2023-01-01T05:57:53;3.60;;;1.38;;
12867;SDS011;33517;49.866;8.320;2023-01-01T06:00:45;0.65;;;0.65;;
12867;SDS011;33517;49.866;8.320;2023-01-01T06:03:37;0.63;;;0.63;;
12867;SDS011;33517;49.866;8.320;2023-01-01T06:06:30;0.80;;;0.80;;
12867;SDS011;33517;49.866;8.320;2023-01-01T06:09:23;0.55;;;0.43;;
12867;SDS011;33517;49.866;8.320;2023-01-01T06:12:16;0.30;;;0.30;;
12867;SDS011;33517;49.866;8.320;2023-01-01T06:15:08;1.00;;;0.60;;
12867;SDS011;33517;49.866;8.320;2023-01-01T06:18:00;0.43;;;0.40;;
12867;SDS011;33517;49.866;8.320;2023-01-01T06:20:52;0.63;;;0.63;;
12867;SDS011;33517;49.866;8.320;2023-01-01T06:23:44;0.70;;;0.70;;
12867;SDS011;33517;49.866;8.320;2023-01-01T06:26:36;0.43;;;0.43;;
12867;SDS011;33517;49.866;8.320;2023-01-01T06:29:30;0.77;;;0.77;;
12867;SDS011;33517;49.866;8.320;2023-01-01T06:32:22;1.13;;;0.88;;
12867;SDS011;33517;49.866;8.320;2023-01-01T06:35:14;2.85;;;1.50;;
12867;SDS011;33517;49.866;8.320;2023-01-01T06:38:06;7.47;;;1.40;;
12867;SDS011;33517;49.866;8.320;2023-01-01T06:40:58;0.85;;;0.82;;
12867;SDS011;33517;49.866;8.320;2023-01-01T06:43:51;1.60;;;0.77;;
12867;SDS011;33517;49.866;8.320;2023-01-01T06:46:46;1.05;;;1.05;;
12867;SDS011;33517;49.866;8.320;2023-01-01T06:49:37;0.65;;;0.55;;
12867;SDS011;33517;49.866;8.320;2023-01-01T06:52:29;1.17;;;1.08;;
12867;SDS011;33517;49.866;8.320;2023-01-01T06:55:21;0.43;;;0.43;;
12867;SDS011;33517;49.866;8.320;2023-01-01T06:58:13;0.43;;;0.43;;
12867;SDS011;33517;49.866;8.320;2023-01-01T07:01:05;2.22;;;1.67;;
12867;SDS011;33517;49.866;8.320;2023-01-01T07:04:01;5.70;;;1.42;;
12867;SDS011;33517;49.866;8.320;2023-01-01T07:06:54;8.27;;;0.95;;
12867;SDS011;33517;49.866;8.320;2023-01-01T07:09:46;0.63;;;0.57;;
12867;SDS011;33517;49.866;8.320;2023-01-01T07:12:38;1.65;;;1.35;;
12867;SDS011;33517;49.866;8.320;2023-01-01T07:15:30;0.50;;;0.50;;
12867;SDS011;33517;49.866;8.320;2023-01-01T07:18:22;2.90;;;1.70;;
12867;SDS011;33517;49.866;8.320;2023-01-01T07:21:22;1.95;;;1.08;;
12867;SDS011;33517;49.866;8.320;2023-01-01T07:24:17;0.65;;;0.65;;
12867;SDS011;33517;49.866;8.320;2023-01-01T07:27:09;0.95;;;0.80;;
12867;SDS011;33517;49.866;8.320;2023-01-01T07:30:00;0.25;;;0.17;;
12867;SDS011;33517;49.866;8.320;2023-01-01T07:32:55;0.80;;;0.80;;
12867;SDS011;33517;49.866;8.320;2023-01-01T07:35:47;0.75;;;0.73;;
12867;SDS011;33517;49.866;8.320;2023-01-01T07:38:40;1.05;;;1.02;;
12867;SDS011;33517;49.866;8.320;2023-01-01T07:41:32;0.55;;;0.32;;
12867;SDS011;33517;49.866;8.320;2023-01-01T07:44:24;0.63;;;0.50;;
12867;SDS011;33517;49.866;8.320;2023-01-01T07:47:18;0.50;;;0.50;;
12867;SDS011;33517;49.866;8.320;2023-01-01T07:50:14;16.40;;;0.80;;
12867;SDS011;33517;49.866;8.320;2023-01-01T07:53:07;0.57;;;0.45;;
12867;SDS011;33517;49.866;8.320;2023-01-01T07:56:00;1.73;;;0.50;;
12867;SDS011;33517;49.866;8.320;2023-01-01T07:58:52;3.30;;;0.60;;
12867;SDS011;33517;49.866;8.320;2023-01-01T08:01:44;0.45;;;0.40;;
12867;SDS011;33517;49.866;8.320;2023-01-01T08:04:36;1.08;;;0.75;;
12867;SDS011;33517;49.866;8.320;2023-01-01T08:07:28;2.05;;;0.98;;
12867;SDS011;33517;49.866;8.320;2023-01-01T08:10:19;0.65;;;0.40;;
12867;SDS011;33517;49.866;8.320;2023-01-01T08:13:13;0.20;;;0.20;;
12867;SDS011;33517;49.866;8.320;2023-01-01T08:16:05;1.08;;;0.85;;
12867;SDS011;33517;49.866;8.320;2023-01-01T08:18:57;1.73;;;0.70;;
12867;SDS011;33517;49.866;8.320;2023-01-01T08:21:49;1.30;;;0.63;;
12867;SDS011;33517;49.866;8.320;2023-01-01T08:24:41;0.55;;;0.50;;
12867;SDS011;33517;49.866;8.320;2023-01-01T08:27:32;0.70;;;0.70;;
12867;SDS011;33517;49.866;8.320;2023-01-01T08:30:26;3.63;;;1.10;;
12867;SDS011;33517;49.866;8.320;2023-01-01T08:33:18;0.52;;;0.52;;
12867;SDS011;33517;49.866;8.320;2023-01-01T08:36:10;1.40;;;1.23;;
12867;SDS011;33517;49.866;8.320;2023-01-01T08:39:05;1.08;;;0.95;;
12867;SDS011;33517;49.866;8.320;2023-01-01T08:41:57;4.15;;;0.95;;
12867;SDS011;33517;49.866;8.320;2023-01-01T08:44:49;0.82;;;0.82;;
12867;SDS011;33517;49.866;8.320;2023-01-01T08:47:42;4.20;;;0.55;;
12867;SDS011;33517;49.866;8.320;2023-01-01T08:50:34;1.33;;;0.80;;
12867;SDS011;33517;49.866;8.320;2023-01-01T08:53:26;0.60;;;0.60;;
12867;SDS011;33517;49.866;8.320;2023-01-01T08:56:18;0.50;;;0.43;;
12867;SDS011;33517;49.866;8.320;2023-01-01T08:59:10;1.38;;;1.05;;
12867;SDS011;33517;49.866;8.320;2023-01-01T09:02:02;0.57;;;0.57;;
12867;SDS011;33517;49.866;8.320;2023-01-01T09:04:57;0.65;;;0.65;;
12867;SDS011;33517;49.866;8.320;2023-01-01T09:07:48;0.20;;;0.20;;
12867;SDS011;33517;49.866;8.320;2023-01-01T09:10:40;0.77;;;0.65;;
12867;SDS011;33517;49.866;8.320;2023-01-01T09:13:33;1.10;;;0.52;;
12867;SDS011;33517;49.866;8.320;2023-01-01T09:16:25;1.00;;;0.70;;
12867;SDS011;33517;49.866;8.320;2023-01-01T09:19:17;0.20;;;0.20;;
12867;SDS011;33517;49.866;8.320;2023-01-01T09:22:10;1.88;;;0.98;;
12867;SDS011;33517;49.866;8.320;2023-01-01T09:25:02;2.42;;;1.20;;
12867;SDS011;33517;49.866;8.320;2023-01-01T09:27:55;4.18;;;0.88;;
12867;SDS011;33517;49.866;8.320;2023-01-01T09:30:48;0.70;;;0.70;;
12867;SDS011;33517;49.866;8.320;2023-01-01T09:33:39;1.23;;;0.90;;
12867;SDS011;33517;49.866;8.320;2023-01-01T09:36:32;1.70;;;0.80;;
12867;SDS011;33517;49.866;8.320;2023-01-01T09:39:26;6.70;;;1.33;;
12867;SDS011;33517;49.866;8.320;2023-01-01T09:42:21;1.10;;;0.95;;
12867;SDS011;33517;49.866;8.320;2023-01-01T09:45:22;1.02;;;0.50;;
12867;SDS011;33517;49.866;8.320;2023-01-01T09:48:16;0.43;;;0.43;;
12867;SDS011;33517;49.866;8.320;2023-01-01T09:51:10;0.70;;;0.70;;
12867;SDS011;33517;49.866;8.320;2023-01-01T09:54:06;0.40;;;0.40;;
12867;SDS011;33517;49.866;8.320;2023-01-01T09:57:07;0.40;;;0.40;;
12867;SDS011;33517;49.866;8.320;2023-01-01T10:00:05;3.13;;;1.98;;
12867;SDS011;33517;49.866;8.320;2023-01-01T10:06:20;0.68;;;0.68;;
12867;SDS011;33517;49.866;8.320;2023-01-01T10:09:17;10.57;;;1.35;;
12867;SDS011;33517;49.866;8.320;2023-01-01T10:12:18;1.77;;;0.77;;
12867;SDS011;33517;49.866;8.320;2023-01-01T10:15:16;0.60;;;0.60;;
12867;SDS011;33517;49.866;8.320;2023-01-01T10:18:13;1.42;;;1.33;;
12867;SDS011;33517;49.866;8.320;2023-01-01T10:21:11;3.47;;;0.98;;
12867;SDS011;33517;49.866;8.320;2023-01-01T10:24:09;0.40;;;0.40;;
12867;SDS011;33517;49.866;8.320;2023-01-01T10:27:27;7.80;;;1.33;;
12867;SDS011;33517;49.866;8.320;2023-01-01T10:30:22;1.08;;;0.80;;
12867;SDS011;33517;49.866;8.320;2023-01-01T10:33:15;1.58;;;1.08;;
12867;SDS011;33517;49.866;8.320;2023-01-01T10:36:07;2.10;;;1.23;;
12867;SDS011;33517;49.866;8.320;2023-01-01T10:39:01;0.32;;;0.32;;
12867;SDS011;33517;49.866;8.320;2023-01-01T10:41:52;2.78;;;2.55;;
12867;SDS011;33517;49.866;8.320;2023-01-01T10:44:46;1.95;;;1.17;;
12867;SDS011;33517;49.866;8.320;2023-01-01T10:47:39;0.95;;;0.90;;
12867;SDS011;33517;49.866;8.320;2023-01-01T10:51:01;2.05;;;1.55;;
12867;SDS011;33517;49.866;8.320;2023-01-01T10:53:54;1.23;;;1.00;;
12867;SDS011;33517;49.866;8.320;2023-01-01T10:56:46;12.63;;;4.30;;
12867;SDS011;33517;49.866;8.320;2023-01-01T10:59:38;4.35;;;1.88;;
12867;SDS011;33517;49.866;8.320;2023-01-01T11:02:32;5.63;;;0.93;;
12867;SDS011;33517;49.866;8.320;2023-01-01T11:05:24;3.90;;;1.10;;
12867;SDS011;33517;49.866;8.320;2023-01-01T11:08:16;9.55;;;5.43;;
12867;SDS011;33517;49.866;8.320;2023-01-01T11:11:16;2.40;;;1.75;;
12867;SDS011;33517;49.866;8.320;2023-01-01T11:14:17;2.38;;;1.20;;
12867;SDS011;33517;49.866;8.320;2023-01-01T11:17:11;0.40;;;0.40;;
12867;SDS011;33517;49.866;8.320;2023-01-01T11:20:16;2.92;;;1.38;;
12867;SDS011;33517;49.866;8.320;2023-01-01T11:23:16;1.55;;;1.27;;
12867;SDS011;33517;49.866;8.320;2023-01-01T11:26:18;2.30;;;1.13;;
12867;SDS011;33517;49.866;8.320;2023-01-01T11:29:18;0.98;;;0.98;;
12867;SDS011;33517;49.866;8.320;2023-01-01T11:32:12;3.10;;;1.35;;
12867;SDS011;33517;49.866;8.320;2023-01-01T11:35:13;1.30;;;1.20;;
12867;SDS011;33517;49.866;8.320;2023-01-01T11:38:14;3.60;;;2.17;;
12867;SDS011;33517;49.866;8.320;2023-01-01T11:41:09;9.98;;;2.97;;
12867;SDS011;33517;49.866;8.320;2023-01-01T11:44:01;2.97;;;1.70;;
12867;SDS011;33517;49.866;8.320;2023-01-01T11:46:53;1.15;;;1.10;;
12867;SDS011;33517;49.866;8.320;2023-01-01T11:49:45;1.10;;;0.93;;
12867;SDS011;33517;49.866;8.320;2023-01-01T11:52:46;0.73;;;0.73;;
12867;SDS011;33517;49.866;8.320;2023-01-01T11:55:39;0.90;;;0.90;;
12867;SDS011;33517;49.866;8.320;2023-01-01T11:58:36;2.55;;;1.92;;
12867;SDS011;33517;49.866;8.320;2023-01-01T12:01:35;0.95;;;0.95;;
12867;SDS011;33517;49.866;8.320;2023-01-01T12:04:34;1.33;;;0.80;;
12867;SDS011;33517;49.866;8.320;2023-01-01T12:07:32;3.35;;;1.77;;
12867;SDS011;33517;49.866;8.320;2023-01-01T12:10:30;2.10;;;0.85;;
12867;SDS011;33517;49.866;8.320;2023-01-01T12:13:32;0.65;;;0.65;;
12867;SDS011;33517;49.866;8.320;2023-01-01T12:16:37;1.38;;;1.23;;
12867;SDS011;33517;49.866;8.320;2023-01-01T12:19:38;12.98;;;1.27;;
12867;SDS011;33517;49.866;8.320;2023-01-01T12:22:32;0.50;;;0.50;;
12867;SDS011;33517;49.866;8.320;2023-01-01T12:25:25;0.80;;;0.75;;
12867;SDS011;33517;49.866;8.320;2023-01-01T12:28:26;11.50;;;2.08;;
12867;SDS011;33517;49.866;8.320;2023-01-01T12:31:25;1.55;;;1.30;;
12867;SDS011;33517;49.866;8.320;2023-01-01T12:34:25;3.90;;;1.15;;
12867;SDS011;33517;49.866;8.320;2023-01-01T12:37:22;4.38;;;1.23;;
12867;SDS011;33517;49.866;8.320;2023-01-01T12:40:31;0.75;;;0.75;;
12867;SDS011;33517;49.866;8.320;2023-01-01T12:43:30;5.47;;;0.98;;
12867;SDS011;33517;49.866;8.320;2023-01-01T12:46:31;1.42;;;1.20;;
12867;SDS011;33517;49.866;8.320;2023-01-01T12:49:35;4.15;;;2.85;;
12867;SDS011;33517;49.866;8.320;2023-01-01T12:52:39;1.55;;;1.40;;
12867;SDS011;33517;49.866;8.320;2023-01-01T12:59:09;3.47;;;2.53;;
12867;SDS011;33517;49.866;8.320;2023-01-01T13:02:10;6.45;;;2.55;;
12867;SDS011;33517;49.866;8.320;2023-01-01T13:05:06;8.77;;;2.97;;
12867;SDS011;33517;49.866;8.320;2023-01-01T13:08:06;5.07;;;3.38;;
12867;SDS011;33517;49.866;8.320;2023-01-01T13:10:59;3.58;;;2.17;;
12867;SDS011;33517;49.866;8.320;2023-01-01T13:13:54;13.63;;;3.45;;
12867;SDS011;33517;49.866;8.320;2023-01-01T13:16:46;11.93;;;3.13;;
12867;SDS011;33517;49.866;8.320;2023-01-01T13:19:41;10.38;;;5.07;;
12867;SDS011;33517;49.866;8.320;2023-01-01T13:22:35;4.55;;;3.05;;
12867;SDS011;33517;49.866;8.320;2023-01-01T13:25:31;4.93;;;2.17;;
12867;SDS011;33517;49.866;8.320;2023-01-01T13:28:23;1.13;;;1.05;;
12867;SDS011;33517;49.866;8.320;2023-01-01T13:31:16;2.47;;;1.77;;
12867;SDS011;33517;49.866;8.320;2023-01-01T13:43:46;1.55;;;1.33;;
12867;SDS011;33517;49.866;8.320;2023-01-01T13:46:41;1.42;;;0.82;;
12867;SDS011;33517;49.866;8.320;2023-01-01T13:49:53;0.90;;;0.90;;
12867;SDS011;33517;49.866;8.320;2023-01-01T13:52:58;4.85;;;1.73;;
12867;SDS011;33517;49.866;8.320;2023-01-01T13:56:14;5.82;;;1.38;;
12867;SDS011;33517;49.866;8.320;2023-01-01T13:59:26;2.33;;;1.33;;
12867;SDS011;33517;49.866;8.320;2023-01-01T14:02:35;6.13;;;1.90;;
12867;SDS011;33517;49.866;8.320;2023-01-01T14:05:33;1.33;;;1.13;;
12867;SDS011;33517;49.866;8.320;2023-01-01T14:08:29;0.70;;;0.70;;
12867;SDS011;33517;49.866;8.320;2023-01-01T14:11:23;1.17;;;1.10;;
12867;SDS011;33517;49.866;8.320;2023-01-01T14:14:21;3.28;;;1.77;;
12867;SDS011;33517;49.866;8.320;2023-01-01T14:17:16;1.95;;;1.58;;
12867;SDS011;33517;49.866;8.320;2023-01-01T14:20:14;4.53;;;1.30;;
12867;SDS011;33517;49.866;8.320;2023-01-01T14:23:08;1.48;;;1.13;;
12867;SDS011;33517;49.866;8.320;2023-01-01T14:26:08;3.33;;;1.58;;
12867;SDS011;33517;49.866;8.320;2023-01-01T14:29:05;7.78;;;1.35;;
12867;SDS011;33517;49.866;8.320;2023-01-01T14:31:59;3.70;;;2.47;;
12867;SDS011;33517;49.866;8.320;2023-01-01T14:35:02;3.72;;;1.40;;
12867;SDS011;33517;49.866;8.320;2023-01-01T14:37:55;2.75;;;1.20;;
12867;SDS011;33517;49.866;8.320;2023-01-01T14:40:47;0.57;;;0.57;;
12867;SDS011;33517;49.866;8.320;2023-01-01T14:43:39;4.00;;;1.13;;
12867;SDS011;33517;49.866;8.320;2023-01-01T14:46:33;2.63;;;1.38;;
12867;SDS011;33517;49.866;8.320;2023-01-01T14:49:31;1.48;;;1.25;;
12867;SDS011;33517;49.866;8.320;2023-01-01T14:52:25;2.17;;;0.82;;
12867;SDS011;33517;49.866;8.320;2023-01-01T14:55:22;0.65;;;0.65;;
12867;SDS011;33517;49.866;8.320;2023-01-01T14:58:17;0.75;;;0.75;;
12867;SDS011;33517;49.866;8.320;2023-01-01T15:01:15;0.68;;;0.60;;
12867;SDS011;33517;49.866;8.320;2023-01-01T15:04:15;3.25;;;1.02;;
12867;SDS011;33517;49.866;8.320;2023-01-01T15:07:15;0.65;;;0.65;;
12867;SDS011;33517;49.866;8.320;2023-01-01T15:10:10;3.30;;;1.02;;
12867;SDS011;33517;49.866;8.320;2023-01-01T15:13:05;1.02;;;0.90;;
12867;SDS011;33517;49.866;8.320;2023-01-01T15:16:13;1.35;;;0.80;;
12867;SDS011;33517;49.866;8.320;2023-01-01T15:19:15;4.93;;;0.82;;
12867;SDS011;33517;49.866;8.320;2023-01-01T15:22:08;1.58;;;0.90;;
12867;SDS011;33517;49.866;8.320;2023-01-01T15:25:02;0.85;;;0.68;;
12867;SDS011;33517;49.866;8.320;2023-01-01T15:27:54;1.30;;;0.88;;
12867;SDS011;33517;49.866;8.320;2023-01-01T15:30:52;1.55;;;0.68;;
12867;SDS011;33517;49.866;8.320;2023-01-01T15:33:45;0.25;;;0.25;;
12867;SDS011;33517;49.866;8.320;2023-01-01T15:36:38;7.45;;;1.58;;
12867;SDS011;33517;49.866;8.320;2023-01-01T15:39:30;0.80;;;0.80;;
12867;SDS011;33517;49.866;8.320;2023-01-01T15:42:29;11.60;;;3.88;;
12867;SDS011;33517;49.866;8.320;2023-01-01T15:45:25;4.45;;;3.25;;
12867;SDS011;33517;49.866;8.320;2023-01-01T15:48:20;4.45;;;3.05;;
12867;SDS011;33517;49.866;8.320;2023-01-01T15:51:19;7.97;;;2.70;;
12867;SDS011;33517;49.866;8.320;2023-01-01T15:54:13;5.72;;;2.30;;
12867;SDS011;33517;49.866;8.320;2023-01-01T15:57:11;3.50;;;2.15;;
12867;SDS011;33517;49.866;8.320;2023-01-01T16:00:15;2.05;;;1.92;;
12867;SDS011;33517;49.866;8.320;2023-01-01T16:03:11;3.78;;;2.03;;
12867;SDS011;33517;49.866;8.320;2023-01-01T16:06:14;3.30;;;2.10;;
12867;SDS011;33517;49.866;8.320;2023-01-01T16:09:10;4.63;;;2.22;;
12867;SDS011;33517;49.866;8.320;2023-01-01T16:12:03;2.63;;;1.92;;
12867;SDS011;33517;49.866;8.320;2023-01-01T16:14:55;0.88;;;0.82;;
12867;SDS011;33517;49.866;8.320;2023-01-01T16:17:47;2.25;;;2.00;;
12867;SDS011;33517;49.866;8.320;2023-01-01T16:20:38;6.90;;;2.33;;
12867;SDS011;33517;49.866;8.320;2023-01-01T16:23:32;0.80;;;0.80;;
12867;SDS011;33517;49.866;8.320;2023-01-01T16:26:24;1.48;;;1.08;;
12867;SDS011;33517;49.866;8.320;2023-01-01T16:29:16;1.55;;;1.25;;
12867;SDS011;33517;49.866;8.320;2023-01-01T16:32:09;1.08;;;0.73;;
12867;SDS011;33517;49.866;8.320;2023-01-01T16:35:10;1.63;;;0.88;;
12867;SDS011;33517;49.866;8.320;2023-01-01T16:38:03;1.85;;;1.75;;
12867;SDS011;33517;49.866;8.320;2023-01-01T16:40:56;6.28;;;3.05;;
12867;SDS011;33517;49.866;8.320;2023-01-01T16:43:48;7.57;;;4.15;;
12867;SDS011;33517;49.866;8.320;2023-01-01T16:46:40;3.40;;;2.03;;
12867;SDS011;33517;49.866;8.320;2023-01-01T16:49:32;1.77;;;1.38;;
12867;SDS011;33517;49.866;8.320;2023-01-01T16:52:24;3.85;;;1.75;;
12867;SDS011;33517;49.866;8.320;2023-01-01T16:55:16;2.95;;;1.52;;
12867;SDS011;33517;49.866;8.320;2023-01-01T16:58:09;4.05;;;2.50;;
12867;SDS011;33517;49.866;8.320;2023-01-01T17:01:01;2.33;;;1.23;;
12867;SDS011;33517;49.866;8.320;2023-01-01T17:03:53;1.85;;;1.30;;
12867;SDS011;33517;49.866;8.320;2023-01-01T17:06:45;5.00;;;3.55;;
12867;SDS011;33517;49.866;8.320;2023-01-01T17:09:37;4.32;;;2.72;;
12867;SDS011;33517;49.866;8.320;2023-01-01T17:12:29;2.20;;;2.00;;
12867;SDS011;33517;49.866;8.320;2023-01-01T17:15:23;1.50;;;1.33;;
12867;SDS011;33517;49.866;8.320;2023-01-01T17:18:14;6.90;;;2.80;;
12867;SDS011;33517;49.866;8.320;2023-01-01T17:21:07;3.00;;;2.17;;
12867;SDS011;33517;49.866;8.320;2023-01-01T17:24:01;1.33;;;1.25;;
12867;SDS011;33517;49.866;8.320;2023-01-01T17:26:53;3.60;;;1.67;;
12867;SDS011;33517;49.866;8.320;2023-01-01T17:29:45;4.30;;;1.52;;
12867;SDS011;33517;49.866;8.320;2023-01-01T17:32:38;3.70;;;2.63;;
12867;SDS011;33517;49.866;8.320;2023-01-01T17:35:31;0.57;;;0.57;;
12867;SDS011;33517;49.866;8.320;2023-01-01T17:38:23;4.40;;;2.42;;
12867;SDS011;33517;49.866;8.320;2023-01-01T17:41:15;2.05;;;1.85;;
12867;SDS011;33517;49.866;8.320;2023-01-01T17:44:08;1.30;;;1.17;;
12867;SDS011;33517;49.866;8.320;2023-01-01T17:47:00;4.78;;;1.30;;
12867;SDS011;33517;49.866;8.320;2023-01-01T17:49:54;2.08;;;1.95;;
12867;SDS011;33517;49.866;8.320;2023-01-01T17:52:45;1.48;;;1.38;;
12867;SDS011;33517;49.866;8.320;2023-01-01T17:55:37;2.88;;;1.60;;